Time;durP1;ratioP1;P1;durP2;ratioP2;P2;SDS_P1;SDS_P2;PMS_P1;PMS_P2;Temp;Humidity;BMP_temperature;BMP_pressure;BME280_temperature;BME280_humidity;BME280_pressure;Samples;Min_cycle;Max_cycle;Signal;HPM_P1;HPM_P2
2024/03/18 00:01:33;;;;;;;;;;;;;;;24.36;40.45;101189.81;4099820;29;20406;-59
2024/03/18 00:03:34;;;;;;;;;;;;;;;24.35;40.44;101181.88;4099842;29;19929;-59
2024/03/18 00:05:34;;;;;;;;;;;;;;;24.38;40.38;101187.00;4099275;29;19969;-59
2024/03/18 00:07:35;;;;;;;;;;;;;;;24.37;40.13;101183.44;4099547;29;20009;-59
2024/03/18 00:09:36;;;;;;;;;;;;;;;24.40;40.58;101180.50;4099433;29;19922;-61
2024/03/18 00:11:36;;;;;;;;;;;;;;;24.41;40.61;101178.66;4099780;29;20360;-59
2024/03/18 00:13:37;;;;;;;;;;;;;;;24.40;40.28;101185.03;4099685;29;19922;-59
2024/03/18 00:15:38;;;;;;;;;;;;;;;24.40;40.51;101171.59;4099416;29;20061;-59
2024/03/18 00:17:38;;;;;;;;;;;;;;;24.40;40.36;101179.66;4099700;29;19991;-58
2024/03/18 00:19:39;;;;;;;;;;;;;;;24.38;40.13;101169.00;4098970;29;19960;-58
2024/03/18 00:21:40;;;;;;;;;;;;;;;24.36;40.63;101176.38;4099407;29;19922;-59
2024/03/18 00:23:40;;;;;;;;;;;;;;;24.35;40.53;101168.44;4099296;29;19926;-59
2024/03/18 00:25:41;;;;;;;;;;;;;;;24.35;40.70;101173.81;4099581;29;19930;-59
2024/03/18 00:27:42;;;;;;;;;;;;;;;24.35;40.36;101169.28;4099550;29;20401;-59
2024/03/18 00:29:43;;;;;;;;;;;;;;;24.38;40.53;101163.63;4099205;29;19922;-59
2024/03/18 00:31:44;;;;;;;;;;;;;;;24.35;40.22;101158.53;4083494;29;20405;-59
2024/03/18 00:33:45;;;;;;;;;;;;;;;24.37;40.62;101169.16;4099218;29;19966;-59
2024/03/18 00:35:45;;;;;;;;;;;;;;;24.37;40.44;101166.47;4082949;29;19931;-59
2024/03/18 00:37:46;;;;;;;;;;;;;;;24.40;40.57;101163.53;4099308;28;19922;-60
2024/03/18 00:39:47;;;;;;;;;;;;;;;24.42;40.48;101164.22;4098477;29;19922;-60
2024/03/18 00:41:48;;;;;;;;;;;;;;;24.40;40.55;101163.53;4099110;29;19957;-59
2024/03/18 00:43:49;;;;;;;;;;;;;;;24.43;40.17;101165.09;4099031;29;19931;-59
2024/03/18 00:45:51;;;;;;;;;;;;;;;24.42;40.17;101158.00;4099188;29;19945;-60
2024/03/18 00:47:51;;;;;;;;;;;;;;;24.41;40.48;101159.81;4098890;29;19923;-59
2024/03/18 00:49:52;;;;;;;;;;;;;;;24.39;40.45;101151.91;4098447;29;19929;-59
2024/03/18 00:51:52;;;;;;;;;;;;;;;24.37;40.58;101153.03;4098940;29;20509;-59
2024/03/18 00:53:53;;;;;;;;;;;;;;;24.37;40.44;101153.84;4098851;29;19930;-60
2024/03/18 00:55:53;;;;;;;;;;;;;;;24.37;40.57;101151.16;4098640;29;20013;-59
2024/03/18 00:57:54;;;;;;;;;;;;;;;24.36;40.67;101151.31;4098814;29;19950;-59
2024/03/18 00:59:55;;;;;;;;;;;;;;;24.36;40.42;101154.88;4098653;29;19927;-60
2024/03/18 01:01:56;;;;;;;;;;;;;;;24.36;40.62;101152.19;4098881;29;19922;-59
2024/03/18 01:03:57;;;;;;;;;;;;;;;24.36;40.58;101152.19;4098620;29;19929;-59
2024/03/18 01:05:57;;;;;;;;;;;;;;;24.38;40.50;101152.03;4098755;29;19923;-60
2024/03/18 01:07:58;;;;;;;;;;;;;;;24.39;40.62;101148.38;4098778;29;19922;-59
2024/03/18 01:09:58;;;;;;;;;;;;;;;24.40;40.45;101150.09;4098710;29;20397;-59
2024/03/18 01:11:59;;;;;;;;;;;;;;;24.42;40.61;101152.63;4098360;29;19958;-59
2024/03/18 01:14:00;;;;;;;;;;;;;;;24.43;40.65;101155.16;4098811;29;19922;-59
2024/03/18 01:16:00;;;;;;;;;;;;;;;24.45;40.40;101152.34;4098622;29;19954;-59
2024/03/18 01:18:01;;;;;;;;;;;;;;;24.44;40.49;101153.34;4098272;29;20089;-60
2024/03/18 01:20:02;;;;;;;;;;;;;;;24.43;40.53;101148.97;4098738;29;19965;-59
2024/03/18 01:22:03;;;;;;;;;;;;;;;24.39;40.49;101145.69;4098729;29;20350;-60
2024/03/18 01:24:04;;;;;;;;;;;;;;;24.39;40.54;101143.84;4098591;29;19981;-59
2024/03/18 01:26:05;;;;;;;;;;;;;;;24.39;40.56;101134.94;4098569;29;19962;-58
2024/03/18 01:28:05;;;;;;;;;;;;;;;24.39;40.56;101137.63;4098567;29;19927;-59
2024/03/18 01:30:12;;;;;;;;;;;;;;;24.38;40.29;101125.16;4098198;29;20405;-59
2024/03/18 01:32:13;;;;;;;;;;;;;;;24.37;40.60;101129.66;4098374;29;19938;-58
2024/03/18 01:34:14;;;;;;;;;;;;;;;24.39;40.59;101129.56;4098413;29;19922;-59
2024/03/18 01:36:14;;;;;;;;;;;;;;;24.39;40.31;101126.88;4098321;29;20538;-59
2024/03/18 01:38:15;;;;;;;;;;;;;;;24.38;40.62;101120.63;4098265;29;19933;-59
2024/03/18 01:40:15;;;;;;;;;;;;;;;24.42;40.30;101128.44;4098455;29;19922;-59
2024/03/18 01:42:16;;;;;;;;;;;;;;;24.43;40.37;101124.75;4098311;29;19922;-59
2024/03/18 01:44:16;;;;;;;;;;;;;;;24.43;40.44;101116.69;4098250;29;20022;-59
2024/03/18 01:46:17;;;;;;;;;;;;;;;24.43;40.22;101114.84;4082453;29;19954;-60
2024/03/18 01:48:18;;;;;;;;;;;;;;;24.43;40.54;101109.47;4097992;29;19983;-59
2024/03/18 01:50:19;;;;;;;;;;;;;;;24.40;40.32;101110.59;4082266;29;20009;-59
2024/03/18 01:52:20;;;;;;;;;;;;;;;24.39;40.27;101106.19;4098151;29;19926;-58
2024/03/18 01:54:21;;;;;;;;;;;;;;;24.39;40.12;101103.50;4098286;29;19928;-59
2024/03/18 01:56:22;;;;;;;;;;;;;;;24.38;40.53;101098.28;4098261;29;19922;-59
2024/03/18 01:58:22;;;;;;;;;;;;;;;24.38;40.54;101100.97;4082382;29;20354;-59
2024/03/18 02:00:24;;;;;;;;;;;;;;;24.36;40.52;101095.72;4098312;29;20381;-59
2024/03/18 02:02:26;;;;;;;;;;;;;;;24.38;40.65;101104.50;4097953;29;19926;-58
2024/03/18 02:04:26;;;;;;;;;;;;;;;24.39;40.52;101099.97;4098185;29;20437;-59
2024/03/18 02:06:27;;;;;;;;;;;;;;;24.39;40.40;101094.59;4098047;29;19930;-59
2024/03/18 02:08:28;;;;;;;;;;;;;;;24.37;40.58;101086.66;4098167;29;19929;-59
2024/03/18 02:10:29;;;;;;;;;;;;;;;24.38;40.24;101083.00;4098171;29;20400;-59
2024/03/18 02:12:29;;;;;;;;;;;;;;;24.39;40.57;101089.22;4098291;29;19933;-58
2024/03/18 02:14:30;;;;;;;;;;;;;;;24.40;40.49;101082.88;4098131;29;20021;-58
2024/03/18 02:16:30;;;;;;;;;;;;;;;24.40;40.25;101081.03;4097852;29;19922;-58
2024/03/18 02:18:31;;;;;;;;;;;;;;;24.41;40.34;101081.84;4098125;29;19923;-58
2024/03/18 02:20:31;;;;;;;;;;;;;;;24.42;40.48;101074.66;4098289;29;19929;-59
2024/03/18 02:22:32;;;;;;;;;;;;;;;24.38;40.52;101084.84;4098093;29;19922;-59
2024/03/18 02:24:33;;;;;;;;;;;;;;;24.35;40.54;101085.97;4098122;29;20381;-58
2024/03/18 02:26:33;;;;;;;;;;;;;;;24.36;40.42;101079.59;4098269;29;19923;-59
2024/03/18 02:28:40;;;;;;;;;;;;;;;24.34;40.51;101076.19;4098127;29;19934;-59
2024/03/18 02:30:41;;;;;;;;;;;;;;;24.35;40.47;101072.53;4097909;29;19922;-59
2024/03/18 02:32:42;;;;;;;;;;;;;;;24.36;40.54;101068.84;4082254;29;20366;-60
2024/03/18 02:34:42;;;;;;;;;;;;;;;24.35;40.38;101061.78;4097912;29;20473;-59
2024/03/18 02:36:43;;;;;;;;;;;;;;;24.35;40.60;101056.41;4097958;29;19922;-60
2024/03/18 02:38:44;;;;;;;;;;;;;;;24.36;40.51;101057.22;4098067;29;19938;-59
2024/03/18 02:40:45;;;;;;;;;;;;;;;24.37;40.35;101059.78;4097938;29;19926;-59
2024/03/18 02:42:45;;;;;;;;;;;;;;;24.37;40.60;101062.47;4097715;29;20289;-60
2024/03/18 02:44:46;;;;;;;;;;;;;;;24.38;40.35;101066.84;4097784;29;20469;-59
2024/03/18 02:46:47;;;;;;;;;;;;;;;24.40;40.19;101077.50;4097779;29;20235;-59
2024/03/18 02:48:48;;;;;;;;;;;;;;;24.40;40.25;101089.09;4098016;29;20353;-59
2024/03/18 02:50:48;;;;;;;;;;;;;;;24.39;40.38;101102.66;4097633;29;20009;-60
2024/03/18 02:52:49;;;;;;;;;;;;;;;24.38;40.26;101103.66;4098118;28;20283;-59
2024/03/18 02:54:49;;;;;;;;;;;;;;;24.36;40.28;101092.19;4097746;29;19969;-59
2024/03/18 02:56:50;;;;;;;;;;;;;;;24.34;40.42;101092.31;4097990;29;19985;-60
2024/03/18 02:58:52;;;;;;;;;;;;;;;24.33;40.41;101085.25;4097794;29;19926;-59
2024/03/18 03:00:52;;;;;;;;;;;;;;;24.33;40.53;101093.31;4097512;29;19930;-59
2024/03/18 03:02:53;;;;;;;;;;;;;;;24.33;40.27;101082.56;4099863;28;20425;-60
2024/03/18 03:04:53;;;;;;;;;;;;;;;24.36;40.53;101086.81;4100768;29;19961;-59
2024/03/18 03:06:54;;;;;;;;;;;;;;;24.37;40.56;101080.44;4100388;29;20002;-59
2024/03/18 03:08:54;;;;;;;;;;;;;;;24.37;40.35;101080.44;4100584;29;19922;-59
2024/03/18 03:10:55;;;;;;;;;;;;;;;24.36;40.46;101082.28;4100418;29;20391;-58
2024/03/18 03:12:55;;;;;;;;;;;;;;;24.36;40.11;101084.13;4100377;29;19958;-58
2024/03/18 03:14:56;;;;;;;;;;;;;;;24.37;40.56;101081.28;4100184;29;19930;-58
2024/03/18 03:16:57;;;;;;;;;;;;;;;24.38;40.35;101074.91;4100484;29;19929;-58
2024/03/18 03:18:59;;;;;;;;;;;;;;;24.38;40.24;101085.66;4100335;29;19929;-58
2024/03/18 03:21:00;;;;;;;;;;;;;;;24.35;40.46;101080.59;4100304;29;20032;-59
2024/03/18 03:23:00;;;;;;;;;;;;;;;24.35;40.59;101077.03;4084696;29;19945;-58
2024/03/18 03:25:01;;;;;;;;;;;;;;;24.32;40.19;101077.31;4100482;29;19930;-59
2024/03/18 03:27:01;;;;;;;;;;;;;;;24.34;40.54;101083.38;4100395;29;19970;-59
2024/03/18 03:29:03;;;;;;;;;;;;;;;24.32;40.50;101080.84;4099949;29;19922;-59
2024/03/18 03:31:08;;;;;;;;;;;;;;;24.31;40.16;101084.50;4100237;29;19929;-59
2024/03/18 03:33:09;;;;;;;;;;;;;;;24.33;40.55;101087.94;4100484;29;20377;-59
2024/03/18 03:35:09;;;;;;;;;;;;;;;24.35;40.54;101096.72;4100302;29;19928;-58
2024/03/18 03:37:10;;;;;;;;;;;;;;;24.36;40.54;101108.31;4100349;29;20390;-58
2024/03/18 03:39:11;;;;;;;;;;;;;;;24.36;40.53;101111.88;4100239;29;20287;-58
2024/03/18 03:41:11;;;;;;;;;;;;;;;24.38;40.44;101109.88;4100181;29;19978;-59
2024/03/18 03:43:12;;;;;;;;;;;;;;;24.37;40.07;101118.06;4099728;29;20059;-58
2024/03/18 03:45:13;;;;;;;;;;;;;;;24.37;40.27;101121.59;4084061;29;19923;-59
2024/03/18 03:47:15;;;;;;;;;;;;;;;24.36;40.17;101122.63;4100097;29;19969;-59
2024/03/18 03:49:16;;;;;;;;;;;;;;;24.38;40.41;101122.47;4100309;29;20055;-59
2024/03/18 03:51:16;;;;;;;;;;;;;;;24.37;40.29;101123.47;4099673;29;19934;-58
2024/03/18 03:53:17;;;;;;;;;;;;;;;24.34;40.32;101119.19;4099973;29;19926;-58
2024/03/18 03:55:18;;;;;;;;;;;;;;;24.34;40.11;101124.56;4099807;29;19977;-58
2024/03/18 03:57:19;;;;;;;;;;;;;;;24.33;40.31;101122.03;4099565;29;20302;-58
2024/03/18 03:59:19;;;;;;;;;;;;;;;24.33;40.58;101122.88;4099975;29;19922;-59
2024/03/18 04:01:21;;;;;;;;;;;;;;;24.33;40.35;101127.41;4099914;29;20211;-58
2024/03/18 04:03:22;;;;;;;;;;;;;;;24.33;40.46;101130.09;4099942;29;19926;-59
2024/03/18 04:05:23;;;;;;;;;;;;;;;24.34;40.51;101135.34;4099584;29;19922;-58
2024/03/18 04:07:26;;;;;;;;;;;;;;;24.35;40.14;101141.53;4099653;29;19957;-59
2024/03/18 04:09:26;;;;;;;;;;;;;;;24.36;40.37;101133.38;4099611;29;19922;-59
2024/03/18 04:11:28;;;;;;;;;;;;;;;24.37;40.45;101143.09;4099599;29;20030;-59
2024/03/18 04:13:31;;;;;;;;;;;;;;;24.37;40.53;101144.97;4082712;29;19923;-59
2024/03/18 04:15:32;;;;;;;;;;;;;;;24.37;40.41;101142.28;4099535;29;20333;-59
2024/03/18 04:17:32;;;;;;;;;;;;;;;24.36;40.50;101149.50;4099598;29;19929;-59
2024/03/18 04:19:33;;;;;;;;;;;;;;;24.38;40.28;101147.50;4083656;29;19945;-58
2024/03/18 04:21:34;;;;;;;;;;;;;;;24.37;40.54;101147.66;4099497;29;19922;-59
2024/03/18 04:23:35;;;;;;;;;;;;;;;24.34;40.42;101148.78;4099673;29;20349;-59
2024/03/18 04:25:35;;;;;;;;;;;;;;;24.34;40.45;101150.59;4099418;29;20411;-59
2024/03/18 04:27:36;;;;;;;;;;;;;;;24.33;40.50;101151.59;4098992;29;19922;-58
2024/03/18 04:29:36;;;;;;;;;;;;;;;24.32;40.52;101152.59;4099383;29;19966;-59
2024/03/18 04:31:38;;;;;;;;;;;;;;;24.31;40.29;101148.19;4099253;29;20421;-59
2024/03/18 04:33:38;;;;;;;;;;;;;;;24.32;40.54;101148.03;4099282;29;19922;-59
2024/03/18 04:35:39;;;;;;;;;;;;;;;24.34;40.41;101153.28;4099339;29;19929;-59
2024/03/18 04:37:46;;;;;;;;;;;;;;;24.33;40.12;101159.66;4099461;29;20389;-58
2024/03/18 04:39:46;;;;;;;;;;;;;;;24.33;40.46;101159.66;4099189;29;20429;-59
2024/03/18 04:41:47;;;;;;;;;;;;;;;24.34;40.17;101166.72;4082972;29;19923;-59
2024/03/18 04:43:47;;;;;;;;;;;;;;;24.33;40.54;101162.34;4099167;29;20385;-59
2024/03/18 04:45:48;;;;;;;;;;;;;;;24.34;40.21;101164.91;4099331;29;19969;-58
2024/03/18 04:47:50;;;;;;;;;;;;;;;24.36;40.33;101170.13;4099263;29;20377;-58
2024/03/18 04:49:50;;;;;;;;;;;;;;;24.35;40.36;101163.06;4098889;29;19922;-60
2024/03/18 04:51:51;;;;;;;;;;;;;;;24.32;40.16;101172.25;4099229;29;19929;-59
2024/03/18 04:53:51;;;;;;;;;;;;;;;24.30;40.08;101174.19;4083226;29;19930;-58
2024/03/18 04:55:52;;;;;;;;;;;;;;;24.30;40.26;101171.50;4098464;29;19982;-58
2024/03/18 04:57:55;;;;;;;;;;;;;;;24.30;40.43;101176.03;4099019;29;20423;-59
2024/03/18 04:59:56;;;;;;;;;;;;;;;24.29;40.24;101172.53;4099255;29;19990;-59
2024/03/18 05:01:57;;;;;;;;;;;;;;;24.28;40.37;101176.19;4098928;29;20038;-59
2024/03/18 05:03:59;;;;;;;;;;;;;;;24.26;40.52;101180.84;4099098;29;19922;-59
2024/03/18 05:05:59;;;;;;;;;;;;;;;24.27;40.36;101177.16;4098949;29;19965;-59
2024/03/18 05:08:00;;;;;;;;;;;;;;;24.28;40.09;101173.50;4098958;29;19923;-60
2024/03/18 05:10:00;;;;;;;;;;;;;;;24.29;40.35;101172.53;4098551;29;20001;-59
2024/03/18 05:12:01;;;;;;;;;;;;;;;24.29;40.24;101175.22;4099036;29;19922;-60
2024/03/18 05:14:02;;;;;;;;;;;;;;;24.30;40.32;101178.72;4098863;29;20472;-60
2024/03/18 05:16:02;;;;;;;;;;;;;;;24.30;40.44;101182.25;4098840;29;19957;-59
2024/03/18 05:18:03;;;;;;;;;;;;;;;24.30;40.29;101190.31;4098675;29;19926;-59
2024/03/18 05:20:07;;;;;;;;;;;;;;;24.29;40.36;101191.34;4098836;29;19926;-59
2024/03/18 05:22:08;;;;;;;;;;;;;;;24.29;39.98;101194.03;4098658;29;19922;-60
2024/03/18 05:24:09;;;;;;;;;;;;;;;24.29;40.38;101187.78;4098360;28;20393;-59
2024/03/18 05:26:10;;;;;;;;;;;;;;;24.27;39.95;101190.59;4098346;29;19929;-59
2024/03/18 05:28:10;;;;;;;;;;;;;;;24.28;40.31;101189.63;4098653;29;19923;-58
2024/03/18 05:30:11;;;;;;;;;;;;;;;24.27;40.06;101198.66;4098586;29;20068;-58
2024/03/18 05:32:13;;;;;;;;;;;;;;;24.25;40.31;101195.25;4098604;29;19929;-59
2024/03/18 05:34:14;;;;;;;;;;;;;;;24.27;40.06;101204.06;4098470;29;19922;-59
2024/03/18 05:36:14;;;;;;;;;;;;;;;24.28;40.31;101203.06;4098414;29;19922;-59
2024/03/18 05:38:15;;;;;;;;;;;;;;;24.29;40.20;101195.84;4098377;29;20021;-59
2024/03/18 05:40:15;;;;;;;;;;;;;;;24.28;40.11;101200.38;4098036;29;19975;-59
2024/03/18 05:42:16;;;;;;;;;;;;;;;24.29;40.15;101201.22;4098512;29;19926;-59
2024/03/18 05:44:16;;;;;;;;;;;;;;;24.28;40.29;101200.38;4098634;29;19922;-59
2024/03/18 05:46:21;;;;;;;;;;;;;;;24.30;40.26;101206.44;4098405;29;19929;-59
2024/03/18 05:48:21;;;;;;;;;;;;;;;24.31;40.24;101208.16;4098317;29;19932;-59
2024/03/18 05:50:22;;;;;;;;;;;;;;;24.31;40.28;101216.22;4098157;29;19930;-60
2024/03/18 05:52:23;;;;;;;;;;;;;;;24.31;40.07;101216.22;4098574;29;20436;-58
2024/03/18 05:54:23;;;;;;;;;;;;;;;24.28;39.90;101211.13;4097923;29;19922;-59
2024/03/18 05:56:24;;;;;;;;;;;;;;;24.26;40.00;101210.41;4098339;29;19922;-59
2024/03/18 05:58:25;;;;;;;;;;;;;;;24.25;40.12;101206.00;4098370;29;19958;-59
2024/03/18 06:00:26;;;;;;;;;;;;;;;24.24;40.12;101215.91;4098275;29;19965;-59
2024/03/18 06:02:26;;;;;;;;;;;;;;;24.23;40.22;101210.69;4098218;29;19933;-59
2024/03/18 06:04:27;;;;;;;;;;;;;;;24.24;40.01;101220.44;4098199;29;20408;-59
2024/03/18 06:06:27;;;;;;;;;;;;;;;24.24;39.94;101221.28;4098473;29;19938;-59
2024/03/18 06:08:28;;;;;;;;;;;;;;;24.26;40.06;101213.09;4098046;29;20282;-59
2024/03/18 06:10:28;;;;;;;;;;;;;;;24.27;40.08;101217.50;4082392;29;20412;-59
2024/03/18 06:12:30;;;;;;;;;;;;;;;24.28;40.13;101221.88;4098157;29;19973;-58
2024/03/18 06:14:31;;;;;;;;;;;;;;;24.29;39.93;101222.72;4098352;29;20327;-59
2024/03/18 06:16:32;;;;;;;;;;;;;;;24.30;40.23;101229.81;4098469;29;19948;-59
2024/03/18 06:18:34;;;;;;;;;;;;;;;24.27;40.14;101232.78;4098310;29;19929;-59
2024/03/18 06:20:37;;;;;;;;;;;;;;;24.28;39.78;101240.69;4098284;29;20378;-59
2024/03/18 06:22:38;;;;;;;;;;;;;;;24.28;40.23;101235.31;4097737;29;19955;-59
2024/03/18 06:27:11;;;;;;;;;;;;;;;24.25;39.73;101246.31;4038893;29;19943;-59
2024/03/18 06:29:12;;;;;;;;;;;;;;;24.24;40.16;101255.38;4065964;29;19923;-57
2024/03/18 06:31:13;;;;;;;;;;;;;;;24.24;40.20;101256.25;4050156;29;19923;-59
2024/03/18 06:33:14;;;;;;;;;;;;;;;24.22;40.17;101260.88;4050371;29;19963;-59
2024/03/18 06:35:15;;;;;;;;;;;;;;;24.24;40.09;101260.75;4065860;29;19931;-59
2024/03/18 06:37:17;;;;;;;;;;;;;;;24.23;40.32;101267.97;4051239;29;20237;-59
2024/03/18 06:39:17;;;;;;;;;;;;;;;24.27;39.78;101268.56;4053136;29;19923;-59
2024/03/18 06:41:18;;;;;;;;;;;;;;;24.27;39.84;101273.94;4053185;29;19946;-59
2024/03/18 06:43:18;;;;;;;;;;;;;;;24.27;39.94;101275.78;4053278;29;20359;-58
2024/03/18 06:45:19;;;;;;;;;;;;;;;24.28;40.13;101280.16;4053017;29;20395;-58
2024/03/18 06:47:20;;;;;;;;;;;;;;;24.28;39.86;101280.16;4053030;29;20375;-59
2024/03/18 06:49:21;;;;;;;;;;;;;;;24.28;39.93;101282.84;4053009;29;19924;-57
2024/03/18 06:51:22;;;;;;;;;;;;;;;24.29;39.93;101284.53;4052524;29;19965;-58
2024/03/18 06:53:23;;;;;;;;;;;;;;;24.28;39.75;101282.84;4052890;29;19959;-58
2024/03/18 06:55:24;;;;;;;;;;;;;;;24.28;39.76;101285.53;4052892;29;19934;-59
2024/03/18 06:57:27;;;;;;;;;;;;;;;24.26;40.00;101282.13;4052932;29;20327;-58
2024/03/18 06:59:27;;;;;;;;;;;;;;;24.24;40.09;101283.13;4068636;29;19927;-59
2024/03/18 07:01:28;;;;;;;;;;;;;;;24.23;39.92;101292.16;4052780;29;19923;-59
2024/03/18 07:03:29;;;;;;;;;;;;;;;24.23;39.98;101291.31;4088541;29;19974;-59
2024/03/18 07:05:30;;;;;;;;;;;;;;;24.22;40.10;101290.44;4100711;29;20423;-58
2024/03/18 07:07:31;;;;;;;;;;;;;;;24.23;39.96;101300.22;4100786;29;19948;-59
2024/03/18 07:09:31;;;;;;;;;;;;;;;24.25;40.13;101292.00;4100504;29;19922;-58
2024/03/18 07:11:32;;;;;;;;;;;;;;;24.25;39.79;101297.41;4100623;29;19923;-58
2024/03/18 07:13:34;;;;;;;;;;;;;;;24.27;40.07;101305.34;4100648;29;19929;-58
2024/03/18 07:15:34;;;;;;;;;;;;;;;24.28;40.02;101299.84;4100429;29;20310;-59
2024/03/18 07:17:35;;;;;;;;;;;;;;;24.28;39.88;101305.22;4101037;29;19922;-60
2024/03/18 07:19:36;;;;;;;;;;;;;;;24.29;39.88;101304.22;4100591;29;19961;-58
2024/03/18 07:21:38;;;;;;;;;;;;;;;24.29;39.77;101306.06;4100267;29;20393;-59
2024/03/18 07:23:39;;;;;;;;;;;;;;;24.29;39.69;101303.38;4100529;29;20039;-59
2024/03/18 07:25:39;;;;;;;;;;;;;;;24.28;39.90;101302.53;4100510;29;19969;-59
2024/03/18 07:27:40;;;;;;;;;;;;;;;24.27;39.81;101302.66;4100413;29;19922;-59
2024/03/18 07:29:40;;;;;;;;;;;;;;;24.28;39.79;101309.72;4100409;29;19962;-59
2024/03/18 07:31:41;;;;;;;;;;;;;;;24.27;39.93;101314.25;4100541;29;20013;-59
2024/03/18 07:33:41;;;;;;;;;;;;;;;24.26;39.93;101312.53;4100290;29;20417;-59
2024/03/18 07:35:42;;;;;;;;;;;;;;;24.28;39.58;101317.78;4100167;29;20461;-58
2024/03/18 07:37:43;;;;;;;;;;;;;;;24.26;39.93;101317.91;4100248;29;20057;-58
2024/03/18 07:39:43;;;;;;;;;;;;;;;24.28;39.59;101318.66;4100432;29;19923;-60
2024/03/18 07:41:44;;;;;;;;;;;;;;;24.29;39.95;101327.56;4100303;29;19957;-60
2024/03/18 07:43:47;;;;;;;;;;;;;;;24.24;39.85;101323.44;4100299;29;19922;-60
2024/03/18 07:45:47;;;;;;;;;;;;;;;24.30;39.53;101337.34;4100179;29;19978;-60
2024/03/18 07:47:48;;;;;;;;;;;;;;;24.31;39.85;101337.19;4099831;28;20313;-60
2024/03/18 07:49:49;;;;;;;;;;;;;;;24.31;39.45;101352.47;4099674;29;19972;-60
2024/03/18 07:51:49;;;;;;;;;;;;;;;24.33;39.74;101345.16;4100079;29;19928;-60
2024/03/18 07:53:50;;;;;;;;;;;;;;;24.32;39.73;101352.34;4100049;29;19922;-60
2024/03/18 07:56:00;;;;;;;;;;;;;;;24.31;39.79;101349.78;4100231;29;20337;-59
2024/03/18 07:58:01;;;;;;;;;;;;;;;24.29;39.75;101357.13;4099761;29;20040;-59
2024/03/18 08:00:05;;;;;;;;;;;;;;;24.28;39.43;101353.59;4100013;29;19922;-59
2024/03/18 08:02:05;;;;;;;;;;;;;;;24.29;39.57;101363.38;4099880;29;19922;-60
2024/03/18 08:04:06;;;;;;;;;;;;;;;24.28;40.05;101371.53;4099634;29;20364;-60
2024/03/18 08:06:08;;;;;;;;;;;;;;;24.24;39.53;101374.50;4083971;29;19923;-60
2024/03/18 08:08:09;;;;;;;;;;;;;;;24.24;39.65;101365.56;4099772;29;19923;-60
2024/03/18 08:10:09;;;;;;;;;;;;;;;24.31;39.47;101373.97;4099562;29;19926;-60
2024/03/18 08:12:10;;;;;;;;;;;;;;;24.30;39.77;101375.81;4099716;29;19976;-60
2024/03/18 08:14:11;;;;;;;;;;;;;;;24.31;39.40;101382.06;4099537;29;19934;-60
2024/03/18 08:16:12;;;;;;;;;;;;;;;24.30;39.33;101375.81;4099638;29;19938;-60
2024/03/18 08:18:13;;;;;;;;;;;;;;;24.32;39.54;101383.75;4099298;29;19922;-60
2024/03/18 08:20:13;;;;;;;;;;;;;;;24.31;39.49;101390.94;4083783;29;19923;-60
2024/03/18 08:22:16;;;;;;;;;;;;;;;24.32;39.36;101397.19;4099452;29;19992;-60
2024/03/18 08:24:17;;;;;;;;;;;;;;;24.32;39.25;101398.03;4099229;29;19930;-60
2024/03/18 08:26:17;;;;;;;;;;;;;;;24.30;39.24;101402.69;4099385;29;19927;-60
2024/03/18 08:28:18;;;;;;;;;;;;;;;24.29;39.53;101414.44;4099515;29;19926;-60
2024/03/18 08:30:18;;;;;;;;;;;;;;;24.29;39.49;101405.50;4099438;29;19958;-60
2024/03/18 08:32:19;;;;;;;;;;;;;;;24.29;39.33;101408.19;4099545;29;20334;-59
2024/03/18 08:34:20;;;;;;;;;;;;;;;24.29;39.32;101403.69;4098833;29;19931;-60
2024/03/18 08:36:20;;;;;;;;;;;;;;;24.29;39.35;101411.75;4099254;29;19969;-60
2024/03/18 08:38:21;;;;;;;;;;;;;;;24.29;39.52;101408.19;4099476;29;20302;-60
2024/03/18 08:40:21;;;;;;;;;;;;;;;24.30;39.27;101413.44;4099265;29;20279;-61
2024/03/18 08:42:22;;;;;;;;;;;;;;;24.30;39.38;101421.50;4099423;29;20016;-59
2024/03/18 08:44:23;;;;;;;;;;;;;;;24.30;39.00;101417.97;4099196;29;20048;-60
2024/03/18 08:46:23;;;;;;;;;;;;;;;24.31;38.95;101417.00;4099301;29;19922;-60
2024/03/18 08:48:27;;;;;;;;;;;;;;;24.31;39.11;101420.53;4099055;29;20389;-60
2024/03/18 08:50:28;;;;;;;;;;;;;;;24.33;39.36;101415.03;4099017;29;19930;-60
2024/03/18 08:52:28;;;;;;;;;;;;;;;24.34;38.82;101411.34;4099190;29;19923;-60
2024/03/18 08:54:30;;;;;;;;;;;;;;;24.32;38.95;101424.91;4099298;29;19930;-60
2024/03/18 08:56:31;;;;;;;;;;;;;;;24.32;38.96;101418.72;4099007;29;19922;-60
2024/03/18 08:58:31;;;;;;;;;;;;;;;24.33;38.86;101415.03;4099089;29;19945;-59
2024/03/18 09:00:32;;;;;;;;;;;;;;;24.32;39.23;101422.25;4098618;28;19945;-60
2024/03/18 09:02:33;;;;;;;;;;;;;;;24.32;38.96;101414.16;4098857;29;19922;-60
2024/03/18 09:04:33;;;;;;;;;;;;;;;24.32;38.93;101416.84;4098922;29;20306;-59
2024/03/18 09:06:34;;;;;;;;;;;;;;;24.33;39.12;101429.31;4098864;29;19922;-60
2024/03/18 09:08:37;;;;;;;;;;;;;;;24.34;38.81;101422.97;4098738;29;20322;-60
2024/03/18 09:10:38;;;;;;;;;;;;;;;24.36;38.88;101426.41;4098875;29;19922;-60
2024/03/18 09:12:39;;;;;;;;;;;;;;;24.37;39.12;101428.06;4098937;29;20329;-60
2024/03/18 09:14:40;;;;;;;;;;;;;;;24.36;38.85;101426.41;4098827;29;19922;-58
2024/03/18 09:16:40;;;;;;;;;;;;;;;24.38;39.09;101427.09;4098431;29;20017;-60
2024/03/18 09:18:41;;;;;;;;;;;;;;;24.40;38.80;101427.84;4098917;29;19923;-59
2024/03/18 09:20:42;;;;;;;;;;;;;;;24.41;38.75;101426.00;4098840;29;19962;-59
2024/03/18 09:22:43;;;;;;;;;;;;;;;24.41;38.53;101423.31;4098721;29;20405;-59
2024/03/18 09:24:43;;;;;;;;;;;;;;;24.42;39.03;101424.16;4098701;29;19922;-60
2024/03/18 09:26:44;;;;;;;;;;;;;;;24.41;38.97;101428.69;4098769;29;19958;-59
2024/03/18 09:28:45;;;;;;;;;;;;;;;24.43;38.56;101420.50;4098816;29;20007;-59
2024/03/18 09:30:45;;;;;;;;;;;;;;;24.46;38.88;101428.28;4098391;29;19938;-59
2024/03/18 09:32:46;;;;;;;;;;;;;;;24.46;38.48;101431.00;4098461;29;19926;-59
2024/03/18 09:34:47;;;;;;;;;;;;;;;24.44;38.55;101438.34;4098784;29;19933;-64
2024/03/18 09:36:47;;;;;;;;;;;;;;;24.44;38.73;101438.34;4098755;29;19923;-59
2024/03/18 09:38:49;;;;;;;;;;;;;;;24.44;38.69;101436.50;4098623;29;20374;-59
2024/03/18 09:40:50;;;;;;;;;;;;;;;24.44;38.67;101438.34;4098364;29;19923;-59
2024/03/18 09:42:50;;;;;;;;;;;;;;;24.48;38.49;101434.41;4098561;29;19928;-59
2024/03/18 09:44:51;;;;;;;;;;;;;;;24.48;38.88;101439.78;4098367;29;19934;-60
2024/03/18 09:46:53;;;;;;;;;;;;;;;24.49;38.80;101439.66;4098214;29;19961;-59
2024/03/18 09:48:55;;;;;;;;;;;;;;;24.50;38.62;101437.84;4098630;29;19923;-59
2024/03/18 09:50:56;;;;;;;;;;;;;;;24.50;38.76;101433.28;4098236;29;19922;-60
2024/03/18 09:52:57;;;;;;;;;;;;;;;24.52;38.37;101431.34;4098457;29;20283;-60
2024/03/18 09:54:58;;;;;;;;;;;;;;;24.53;38.84;101429.50;4098311;29;20039;-59
2024/03/18 09:57:04;;;;;;;;;;;;;;;24.52;38.73;101438.53;4098271;29;20504;-59
2024/03/18 09:59:05;;;;;;;;;;;;;;;24.53;38.68;101437.56;4082629;29;19923;-60
2024/03/18 10:01:06;;;;;;;;;;;;;;;24.53;38.65;101429.50;4082239;29;19930;-59
2024/03/18 10:03:16;;;;;;;;;;;;;;;24.54;38.65;101436.59;4098366;29;19961;-59
2024/03/18 10:05:18;;;;;;;;;;;;;;;24.55;38.40;101439.13;4098226;29;19926;-59
2024/03/18 10:07:18;;;;;;;;;;;;;;;24.54;38.43;101444.66;4098268;29;19929;-60
2024/03/18 10:09:22;;;;;;;;;;;;;;;24.54;38.59;101452.72;4098352;29;19922;-59
2024/03/18 10:11:23;;;;;;;;;;;;;;;24.53;38.78;101443.81;4099752;28;20287;-59
2024/03/18 10:13:24;;;;;;;;;;;;;;;24.50;38.74;101446.75;4101383;29;20005;-60
2024/03/18 10:15:26;;;;;;;;;;;;;;;24.51;38.56;101444.88;4101308;29;20395;-59
2024/03/18 10:17:28;;;;;;;;;;;;;;;24.52;38.69;101451.97;4101287;29;19922;-60
2024/03/18 10:19:29;;;;;;;;;;;;;;;24.51;38.29;101444.88;4085661;29;19926;-59
2024/03/18 10:21:30;;;;;;;;;;;;;;;24.52;38.57;101450.16;4101463;29;20407;-59
2024/03/18 10:23:30;;;;;;;;;;;;;;;24.55;38.49;101452.56;4101239;29;19973;-59